createdAt,value
2022-12-08T00:01:29.240Z,15.23
2022-12-08T00:03:58.702Z,14.73
2022-12-08T00:06:48.435Z,14.03
2022-12-08T00:09:22.912Z,14.00
2022-12-08T00:11:52.591Z,14.10
2022-12-08T00:14:22.709Z,14.83
2022-12-08T00:16:50.099Z,15.10
2022-12-08T00:19:17.462Z,13.57
2022-12-08T00:21:44.734Z,14.33
2022-12-08T00:24:11.994Z,14.40
2022-12-08T00:26:39.197Z,14.47
2022-12-08T00:29:06.438Z,14.73
2022-12-08T00:31:33.847Z,14.47
2022-12-08T00:34:01.481Z,15.53
2022-12-08T00:36:28.983Z,14.30
2022-12-08T00:38:56.732Z,15.27
2022-12-08T00:41:44.275Z,14.67
2022-12-08T00:44:13.822Z,15.27
2022-12-08T00:46:41.820Z,15.00
2022-12-08T00:49:10.135Z,14.03
2022-12-08T00:51:37.593Z,14.47
2022-12-08T00:54:05.873Z,14.43
2022-12-08T00:56:33.366Z,14.87
2022-12-08T00:59:01.658Z,14.80
2022-12-08T01:01:28.927Z,14.73
2022-12-08T01:03:56.112Z,14.27
2022-12-08T01:06:23.606Z,15.23
2022-12-08T01:08:50.799Z,15.17
2022-12-08T01:11:19.650Z,14.93
2022-12-08T01:13:47.131Z,15.23
2022-12-08T01:16:22.898Z,14.07
2022-12-08T01:18:50.181Z,14.70
2022-12-08T01:21:17.869Z,14.90
2022-12-08T01:23:45.558Z,14.10
2022-12-08T01:26:14.826Z,14.33
2022-12-08T01:28:42.303Z,15.23
2022-12-08T01:31:17.923Z,14.23
2022-12-08T01:33:45.617Z,13.90
2022-12-08T01:36:23.246Z,14.60
2022-12-08T01:38:51.394Z,14.57
2022-12-08T01:41:22.082Z,15.17
2022-12-08T01:44:02.783Z,15.40
2022-12-08T01:46:33.074Z,14.20
2022-12-08T01:49:08.751Z,14.30
2022-12-08T01:51:42.353Z,14.87
2022-12-08T01:54:11.126Z,14.67
2022-12-08T01:56:47.438Z,15.13
2022-12-08T01:59:14.727Z,14.90
2022-12-08T02:01:41.963Z,14.83
2022-12-08T02:04:10.262Z,15.20
2022-12-08T02:06:41.760Z,14.53
2022-12-08T02:09:09.062Z,15.03
2022-12-08T02:11:36.313Z,14.50
2022-12-08T02:14:07.342Z,15.17
2022-12-08T02:17:03.057Z,14.70
2022-12-08T02:19:57.943Z,14.37
2022-12-08T02:22:40.322Z,14.73
2022-12-08T02:25:17.599Z,14.53
2022-12-08T02:28:09.662Z,14.20
2022-12-08T02:30:55.427Z,14.83
2022-12-08T02:34:03.533Z,14.93
2022-12-08T02:36:59.190Z,15.13
2022-12-08T02:39:29.799Z,15.37
2022-12-08T02:42:21.569Z,15.77
2022-12-08T02:44:52.562Z,15.07
2022-12-08T02:47:22.143Z,15.73
2022-12-08T02:49:49.524Z,15.27
2022-12-08T02:52:19.802Z,15.30
2022-12-08T02:54:51.288Z,15.20
2022-12-08T02:58:00.227Z,14.73
2022-12-08T03:00:35.886Z,15.70
2022-12-08T03:03:03.015Z,15.43
2022-12-08T03:05:50.276Z,15.33
2022-12-08T03:08:24.741Z,15.87
2022-12-08T03:11:24.934Z,15.67
2022-12-08T03:13:54.583Z,14.57
2022-12-08T03:16:28.062Z,14.63
2022-12-08T03:19:13.508Z,14.70
2022-12-08T03:21:44.069Z,16.37
2022-12-08T03:24:12.947Z,15.07
2022-12-08T03:26:56.910Z,15.00
2022-12-08T03:29:24.425Z,15.40
2022-12-08T03:31:58.008Z,15.60
2022-12-08T03:34:28.315Z,16.27
2022-12-08T03:36:55.820Z,14.30
2022-12-08T03:39:22.995Z,15.53
2022-12-08T03:41:50.194Z,15.67
2022-12-08T03:44:17.379Z,15.23
2022-12-08T03:46:44.542Z,16.20
2022-12-08T03:49:12.047Z,16.30
2022-12-08T03:51:39.275Z,15.60
2022-12-08T03:54:06.480Z,16.07
2022-12-08T03:56:36.298Z,15.33
2022-12-08T03:59:04.631Z,15.13
2022-12-08T04:01:32.154Z,14.23
2022-12-08T04:03:59.379Z,15.43
2022-12-08T04:06:26.743Z,14.57
2022-12-08T04:08:54.081Z,15.23
2022-12-08T04:11:21.783Z,15.27
2022-12-08T04:13:48.970Z,17.43
2022-12-08T04:16:22.551Z,15.97
2022-12-08T04:18:50.188Z,15.17
2022-12-08T04:21:17.957Z,15.60
2022-12-08T04:23:45.587Z,16.00
2022-12-08T04:26:14.232Z,16.70
2022-12-08T04:28:41.423Z,17.10
2022-12-08T04:31:08.773Z,16.73
2022-12-08T04:33:36.301Z,16.03
2022-12-08T04:36:04.787Z,14.50
2022-12-08T04:38:32.710Z,15.23
2022-12-08T04:40:59.850Z,16.37
2022-12-08T04:43:27.087Z,15.50
2022-12-08T04:45:54.323Z,16.77
2022-12-08T04:48:21.520Z,17.00
2022-12-08T04:50:48.775Z,17.27
2022-12-08T04:53:16.225Z,17.40
2022-12-08T04:55:44.881Z,17.40
2022-12-08T04:58:13.979Z,16.93
2022-12-08T05:00:41.982Z,17.50
2022-12-08T05:03:09.522Z,16.93
2022-12-08T05:05:36.856Z,18.13
2022-12-08T05:08:04.205Z,16.83
2022-12-08T05:10:31.864Z,16.60
2022-12-08T05:12:59.717Z,17.07
2022-12-08T05:15:27.038Z,17.80
2022-12-08T05:17:54.314Z,17.77
2022-12-08T05:20:21.766Z,17.60
2022-12-08T05:22:48.981Z,17.97
2022-12-08T05:25:16.254Z,18.57
2022-12-08T05:27:43.757Z,15.60
2022-12-08T05:30:11.086Z,17.37
2022-12-08T05:32:38.273Z,16.63
2022-12-08T05:35:05.915Z,17.53
2022-12-08T05:37:33.110Z,16.13
2022-12-08T05:40:00.710Z,17.00
2022-12-08T05:42:27.905Z,15.20
2022-12-08T05:44:55.087Z,14.87
2022-12-08T05:47:22.256Z,16.33
2022-12-08T05:49:49.636Z,16.43
2022-12-08T05:52:16.989Z,15.70
2022-12-08T05:54:44.595Z,16.13
2022-12-08T05:57:11.763Z,16.43
2022-12-08T05:59:39.391Z,17.13
2022-12-08T06:02:08.724Z,17.13
2022-12-08T06:04:36.154Z,15.20
2022-12-08T06:07:03.359Z,15.57
2022-12-08T06:09:30.583Z,14.30
2022-12-08T06:11:57.766Z,14.67
2022-12-08T06:14:24.997Z,15.13
2022-12-08T06:16:52.233Z,18.20
2022-12-08T06:19:19.647Z,18.30
2022-12-08T06:21:46.811Z,19.13
2022-12-08T06:24:14.854Z,20.53
2022-12-08T06:26:42.231Z,20.03
2022-12-08T06:29:09.510Z,21.83
2022-12-08T06:31:36.822Z,20.33
2022-12-08T06:34:04.174Z,18.47
2022-12-08T06:36:31.595Z,20.33
2022-12-08T06:38:58.895Z,19.57
2022-12-08T06:41:26.443Z,17.33
2022-12-08T06:43:56.826Z,17.47
2022-12-08T06:46:24.095Z,17.30
2022-12-08T06:48:51.270Z,16.57
2022-12-08T06:51:21.095Z,16.73
2022-12-08T06:53:48.260Z,17.00
2022-12-08T06:56:19.812Z,16.03
2022-12-08T06:58:52.408Z,16.97
2022-12-08T07:01:20.364Z,17.27
2022-12-08T07:03:47.796Z,16.47
2022-12-08T07:06:22.582Z,17.00
2022-12-08T07:08:50.271Z,18.50
2022-12-08T07:11:21.548Z,38.47
2022-12-08T07:13:50.185Z,33.47
2022-12-08T07:16:17.426Z,31.73
2022-12-08T07:18:44.647Z,20.90
2022-12-08T07:21:17.624Z,18.47
2022-12-08T07:23:54.363Z,18.10
2022-12-08T07:26:25.123Z,19.70
2022-12-08T07:28:52.466Z,24.70
2022-12-08T07:31:22.232Z,21.90
2022-12-08T07:33:52.622Z,22.10
2022-12-08T07:36:19.898Z,20.77
2022-12-08T07:38:47.630Z,19.23
2022-12-08T07:41:16.995Z,19.83
2022-12-08T07:43:44.725Z,18.40
2022-12-08T07:46:17.030Z,18.67
2022-12-08T07:48:44.386Z,16.90
2022-12-08T07:51:13.628Z,17.27
2022-12-08T07:53:43.878Z,16.97
2022-12-08T07:56:13.860Z,17.13
2022-12-08T07:58:41.545Z,15.87
2022-12-08T08:01:26.430Z,16.50
2022-12-08T08:03:55.620Z,17.73
2022-12-08T08:06:23.195Z,16.93
2022-12-08T08:08:50.438Z,18.03
2022-12-08T08:11:21.412Z,15.53
2022-12-08T08:13:50.183Z,16.63
2022-12-08T08:16:18.337Z,18.73
2022-12-08T08:18:50.819Z,19.07
2022-12-08T08:24:06.193Z,17.53
2022-12-08T08:26:33.394Z,16.03
2022-12-08T08:29:00.634Z,15.53
2022-12-08T08:31:27.937Z,16.03
2022-12-08T08:33:56.895Z,14.60
2022-12-08T08:36:24.055Z,15.60
2022-12-08T08:38:51.218Z,15.40
2022-12-08T08:41:18.431Z,14.97
2022-12-08T08:43:45.573Z,15.60
2022-12-08T08:46:12.902Z,15.27
2022-12-08T08:48:40.597Z,15.60
2022-12-08T08:51:12.992Z,15.70
2022-12-08T08:53:41.151Z,14.60
2022-12-08T08:56:13.415Z,15.30
2022-12-08T08:58:41.150Z,17.00
2022-12-08T09:01:08.756Z,14.77
2022-12-08T09:03:35.936Z,14.17
2022-12-08T09:06:03.153Z,14.40
2022-12-08T09:08:30.418Z,15.50
2022-12-08T09:10:57.626Z,15.17
2022-12-08T09:13:24.808Z,14.40
2022-12-08T09:15:52.053Z,15.10
2022-12-08T09:18:19.220Z,13.63
2022-12-08T09:20:46.399Z,14.73
2022-12-08T09:23:14.412Z,15.63
2022-12-08T09:25:45.446Z,15.73
2022-12-08T09:28:13.620Z,15.33
2022-12-08T09:30:41.338Z,16.07
2022-12-08T09:33:08.486Z,15.50
2022-12-08T09:35:35.726Z,16.07
2022-12-08T09:38:02.916Z,15.83
2022-12-08T09:40:34.993Z,14.73
2022-12-08T09:43:17.407Z,15.83
2022-12-08T09:45:45.300Z,15.90
2022-12-08T09:48:17.309Z,16.13
2022-12-08T09:50:52.442Z,16.87
2022-12-08T09:53:36.800Z,16.60
2022-12-08T09:56:12.692Z,16.17
2022-12-08T09:58:56.138Z,15.60
2022-12-08T10:01:27.830Z,15.97
2022-12-08T10:03:55.979Z,15.77
2022-12-08T10:06:52.755Z,14.10
2022-12-08T10:09:22.959Z,14.50
2022-12-08T10:12:15.315Z,13.97
2022-12-08T10:14:46.982Z,15.30
2022-12-08T10:17:27.762Z,14.53
2022-12-08T10:20:03.980Z,13.83
2022-12-08T10:22:38.703Z,14.83
2022-12-08T10:25:18.323Z,14.50
2022-12-08T10:27:49.213Z,14.20
2022-12-08T10:30:18.739Z,13.80
2022-12-08T10:32:49.038Z,14.67
2022-12-08T10:35:18.947Z,14.83
2022-12-08T10:38:01.316Z,14.33
2022-12-08T10:40:39.119Z,14.63
2022-12-08T10:43:15.556Z,15.63
2022-12-08T10:45:43.908Z,13.83
2022-12-08T10:48:18.239Z,14.97
2022-12-08T10:50:52.579Z,16.17
2022-12-08T10:53:21.298Z,16.20
2022-12-08T10:56:02.477Z,15.47
2022-12-08T10:58:44.713Z,16.27
2022-12-08T11:01:18.323Z,16.43
2022-12-08T11:03:53.998Z,16.83
2022-12-08T11:06:34.570Z,17.10
2022-12-08T11:09:06.436Z,16.20
2022-12-08T11:11:44.035Z,15.93
2022-12-08T11:14:22.963Z,16.50
2022-12-08T11:16:53.538Z,17.13
2022-12-08T11:19:21.827Z,16.53
2022-12-08T11:21:49.039Z,16.00
2022-12-08T11:24:21.981Z,15.40
2022-12-08T11:26:58.010Z,15.83
2022-12-08T11:29:26.090Z,15.03
2022-12-08T11:32:01.906Z,15.47
2022-12-08T11:34:43.010Z,16.17
2022-12-08T11:37:28.639Z,15.97
2022-12-08T11:40:06.215Z,16.10
2022-12-08T11:42:43.238Z,16.33
2022-12-08T11:45:22.987Z,16.43
2022-12-08T11:47:56.109Z,17.43
2022-12-08T11:50:31.515Z,16.80
2022-12-08T11:53:01.501Z,16.90
2022-12-08T11:55:48.191Z,15.97
2022-12-08T11:58:22.740Z,16.27
2022-12-08T12:00:50.132Z,16.40
2022-12-08T12:03:29.828Z,18.00
2022-12-08T12:06:38.033Z,21.30
2022-12-08T12:09:26.754Z,16.60
2022-12-08T12:12:16.518Z,20.33
2022-12-08T12:14:55.320Z,17.00
2022-12-08T12:17:38.650Z,18.10
2022-12-08T12:20:27.490Z,17.23
2022-12-08T12:23:06.467Z,16.87
2022-12-08T12:25:35.847Z,17.13
2022-12-08T12:28:06.864Z,17.77
2022-12-08T12:31:06.823Z,16.33
2022-12-08T12:33:35.628Z,17.57
2022-12-08T12:36:06.830Z,16.90
2022-12-08T12:39:14.258Z,16.53
2022-12-08T12:41:53.510Z,16.70
2022-12-08T12:44:29.617Z,16.53
2022-12-08T12:47:02.050Z,17.87
2022-12-08T12:49:43.469Z,18.23
2022-12-08T12:52:16.756Z,16.93
2022-12-08T12:55:04.961Z,18.00
2022-12-08T12:57:49.677Z,16.60
2022-12-08T13:00:25.977Z,17.47
2022-12-08T13:02:58.377Z,17.67
2022-12-08T13:05:31.399Z,16.03
2022-12-08T13:08:02.952Z,16.27
2022-12-08T13:10:32.078Z,18.07
2022-12-08T13:13:07.150Z,17.30
2022-12-08T13:15:55.760Z,16.77
2022-12-08T13:18:47.016Z,16.67
2022-12-08T13:21:18.786Z,17.20
2022-12-08T13:23:49.864Z,16.97
2022-12-08T13:26:25.642Z,16.07
2022-12-08T13:28:58.866Z,16.33
2022-12-08T13:31:50.634Z,16.57
2022-12-08T13:34:55.292Z,16.43
2022-12-08T13:37:26.763Z,16.53
2022-12-08T13:39:56.936Z,16.23
2022-12-08T13:42:32.035Z,16.63
2022-12-08T13:48:30.129Z,17.10
2022-12-08T13:55:01.400Z,17.53
2022-12-08T13:57:14.082Z,17.53
2022-12-08T13:59:45.547Z,18.93
2022-12-08T14:02:28.464Z,18.40
2022-12-08T14:07:44.687Z,18.97
2022-12-08T14:10:23.233Z,17.57
2022-12-08T14:12:58.963Z,18.33
2022-12-08T14:15:26.526Z,18.60
2022-12-08T14:17:56.880Z,17.73
2022-12-08T14:20:29.996Z,18.90
2022-12-08T14:22:59.351Z,18.37
2022-12-08T14:25:30.073Z,18.00
2022-12-08T14:28:01.290Z,18.53
2022-12-08T14:30:32.012Z,18.47
2022-12-08T14:33:01.918Z,18.73
2022-12-08T14:35:37.647Z,17.33
2022-12-08T14:38:16.780Z,18.57
2022-12-08T14:41:02.337Z,19.40
2022-12-08T14:43:30.634Z,19.93
2022-12-08T14:46:02.190Z,17.87
2022-12-08T14:48:36.156Z,17.70
2022-12-08T14:51:09.686Z,17.60
2022-12-08T14:53:37.720Z,18.47
2022-12-08T14:56:38.539Z,20.97
2022-12-08T14:59:19.391Z,18.63
2022-12-08T15:01:49.026Z,19.03
2022-12-08T15:04:25.608Z,19.47
2022-12-08T15:06:57.930Z,20.70
2022-12-08T15:09:29.806Z,19.93
2022-12-08T15:12:04.229Z,19.43
2022-12-08T15:14:34.374Z,19.87
2022-12-08T15:17:01.939Z,21.13
2022-12-08T15:19:33.865Z,18.53
2022-12-08T15:22:20.106Z,17.97
2022-12-08T15:24:47.291Z,17.07
2022-12-08T15:27:22.656Z,17.07
2022-12-08T15:29:50.367Z,17.43
2022-12-08T15:32:20.951Z,17.73
2022-12-08T15:34:48.420Z,18.27
2022-12-08T15:37:26.445Z,18.03
2022-12-08T15:39:53.776Z,18.40
2022-12-08T15:42:20.974Z,19.93
2022-12-08T15:44:48.461Z,20.27
2022-12-08T15:47:21.659Z,17.43
2022-12-08T15:49:50.346Z,17.60
2022-12-08T15:52:20.310Z,16.80
2022-12-08T15:54:47.476Z,19.27
2022-12-08T15:57:59.153Z,17.13
2022-12-08T16:00:51.749Z,17.37
2022-12-08T16:04:20.250Z,17.33
2022-12-08T16:09:18.080Z,17.27
2022-12-08T16:12:07.119Z,17.77
2022-12-08T16:17:23.711Z,17.67
2022-12-08T16:19:50.982Z,19.87
2022-12-08T16:25:24.892Z,23.40
2022-12-08T16:28:17.447Z,22.57
2022-12-08T16:30:42.110Z,21.43
2022-12-08T16:33:11.951Z,20.67
2022-12-08T16:35:40.185Z,20.17
2022-12-08T16:38:07.587Z,18.20
2022-12-08T16:40:54.899Z,20.17
2022-12-08T16:43:22.042Z,19.40
2022-12-08T16:45:49.294Z,21.50
2022-12-08T16:48:16.458Z,21.93
2022-12-08T16:50:45.609Z,23.00
2022-12-08T16:53:13.165Z,20.73
2022-12-08T16:55:45.346Z,20.17
2022-12-08T16:58:12.495Z,18.97
2022-12-08T17:00:40.237Z,19.30
2022-12-08T17:03:08.554Z,19.97
2022-12-08T17:05:35.868Z,20.00
2022-12-08T17:08:03.107Z,21.77
2022-12-08T17:10:34.253Z,20.43
2022-12-08T17:13:02.262Z,21.50
2022-12-08T17:15:30.655Z,23.00
2022-12-08T17:17:57.831Z,24.20
2022-12-08T17:20:27.554Z,23.97
2022-12-08T17:22:57.405Z,23.07
2022-12-08T17:25:26.191Z,22.07
2022-12-08T17:27:53.383Z,21.67
2022-12-08T17:30:20.702Z,33.63
2022-12-08T17:32:47.975Z,26.33
2022-12-08T17:35:15.294Z,25.10
2022-12-08T17:37:43.280Z,24.20
2022-12-08T17:40:11.104Z,24.53
2022-12-08T17:42:38.894Z,28.13
2022-12-08T17:45:08.263Z,34.37
2022-12-08T17:47:36.156Z,35.43
2022-12-08T17:50:04.555Z,29.33
2022-12-08T17:52:32.111Z,31.63
2022-12-08T17:54:59.267Z,28.50
2022-12-08T17:57:26.401Z,31.17
2022-12-08T17:59:53.635Z,36.90
2022-12-08T18:02:20.889Z,37.77
2022-12-08T18:04:48.078Z,42.33
2022-12-08T18:07:15.270Z,41.77
2022-12-08T18:09:42.442Z,37.07
2022-12-08T18:12:09.640Z,33.50
2022-12-08T18:14:36.926Z,31.07
2022-12-08T18:17:04.127Z,29.57
2022-12-08T18:19:31.359Z,30.53
2022-12-08T18:21:58.541Z,32.27
2022-12-08T18:24:25.682Z,34.10
2022-12-08T18:26:53.075Z,32.20
2022-12-08T18:29:21.716Z,30.27
2022-12-08T18:31:50.150Z,30.63
2022-12-08T18:34:18.959Z,31.10
2022-12-08T18:36:46.447Z,31.47
2022-12-08T18:39:28.496Z,30.47
2022-12-08T18:41:57.415Z,34.50
2022-12-08T18:44:24.702Z,110.53
2022-12-08T18:46:51.821Z,34.13
2022-12-08T18:49:19.970Z,31.03
2022-12-08T18:51:47.233Z,31.27
2022-12-08T18:54:14.439Z,32.50
2022-12-08T18:56:41.695Z,32.20
2022-12-08T18:59:11.559Z,34.60
2022-12-08T19:01:39.863Z,31.13
2022-12-08T19:04:27.929Z,32.87
2022-12-08T19:06:56.859Z,24.83
2022-12-08T19:09:26.556Z,28.80
2022-12-08T19:11:53.753Z,31.27
2022-12-08T19:14:27.784Z,35.70
2022-12-08T19:16:57.623Z,33.00
2022-12-08T19:19:26.153Z,26.53
2022-12-08T19:21:53.686Z,28.10
2022-12-08T19:24:20.913Z,30.63
2022-12-08T19:26:48.096Z,31.93
2022-12-08T19:29:15.330Z,33.03
2022-12-08T19:31:42.753Z,30.77
2022-12-08T19:34:12.251Z,31.73
2022-12-08T19:36:42.616Z,31.37
2022-12-08T19:39:38.202Z,30.50
2022-12-08T19:42:42.403Z,31.10
2022-12-08T19:45:13.268Z,32.20
2022-12-08T19:47:40.940Z,32.40
2022-12-08T19:50:28.766Z,32.23
2022-12-08T19:52:56.379Z,30.87
2022-12-08T19:55:24.673Z,44.60
2022-12-08T19:57:53.413Z,39.50
2022-12-08T20:00:21.166Z,35.27
2022-12-08T20:02:48.582Z,30.43
2022-12-08T20:05:15.966Z,31.83
2022-12-08T20:07:43.784Z,31.30
2022-12-08T20:10:30.194Z,34.00
2022-12-08T20:13:17.349Z,33.03
2022-12-08T20:15:45.575Z,33.37
2022-12-08T20:18:14.801Z,33.33
2022-12-08T20:20:43.700Z,33.07
2022-12-08T20:23:11.351Z,31.70
2022-12-08T20:25:40.081Z,31.57
2022-12-08T20:28:07.751Z,30.27
2022-12-08T20:30:37.553Z,30.53
2022-12-08T20:33:04.887Z,32.57
2022-12-08T20:35:32.286Z,34.93
2022-12-08T20:37:59.544Z,33.53
2022-12-08T20:40:26.858Z,34.47
2022-12-08T20:42:54.182Z,35.47
2022-12-08T20:45:21.376Z,34.97
2022-12-08T20:47:48.975Z,34.93
2022-12-08T20:50:16.334Z,38.03
2022-12-08T20:52:43.697Z,38.70
2022-12-08T20:55:11.166Z,39.93
2022-12-08T20:57:38.578Z,40.97
2022-12-08T21:00:07.043Z,37.53
2022-12-08T21:02:34.872Z,32.83
2022-12-08T21:05:02.291Z,38.93
2022-12-08T21:07:29.616Z,39.70
2022-12-08T21:09:56.953Z,40.10
2022-12-08T21:12:24.262Z,38.43
2022-12-08T21:14:51.508Z,41.50
2022-12-08T21:17:19.028Z,43.30
2022-12-08T21:19:46.254Z,39.90
2022-12-08T21:22:14.033Z,41.10
2022-12-08T21:24:41.294Z,37.07
2022-12-08T21:27:08.719Z,35.23
2022-12-08T21:29:35.912Z,34.93
2022-12-08T21:32:03.251Z,36.20
2022-12-08T21:34:31.769Z,35.53
2022-12-08T21:36:59.697Z,34.87
2022-12-08T21:39:27.610Z,32.67
2022-12-08T21:42:13.389Z,34.30
2022-12-08T21:44:40.799Z,34.50
2022-12-08T21:47:08.462Z,34.30
2022-12-08T21:49:35.691Z,52.57
2022-12-08T21:52:02.985Z,38.53
2022-12-08T21:54:30.245Z,34.57
2022-12-08T21:56:57.449Z,29.97
2022-12-08T21:59:24.755Z,27.60
2022-12-08T22:01:52.116Z,29.00
2022-12-08T22:04:21.765Z,28.20
2022-12-08T22:06:49.400Z,28.20
2022-12-08T22:09:16.936Z,28.47
2022-12-08T22:11:44.863Z,27.50
2022-12-08T22:14:14.951Z,27.87
2022-12-08T22:16:43.461Z,29.40
2022-12-08T22:19:12.054Z,27.93
2022-12-08T22:21:39.558Z,27.67
2022-12-08T22:24:07.117Z,30.27
2022-12-08T22:26:35.611Z,27.80
2022-12-08T22:29:02.915Z,27.97
2022-12-08T22:31:31.489Z,32.27
2022-12-08T22:33:59.769Z,36.33
2022-12-08T22:36:28.193Z,29.80
2022-12-08T22:38:55.842Z,27.60
2022-12-08T22:41:23.489Z,25.70
2022-12-08T22:43:51.269Z,24.03
2022-12-08T22:46:22.092Z,26.50
2022-12-08T22:48:50.648Z,28.00
2022-12-08T22:51:18.526Z,28.33
2022-12-08T22:53:46.637Z,30.57
2022-12-08T22:56:14.821Z,30.37
2022-12-08T22:58:42.699Z,24.17
2022-12-08T23:01:21.371Z,22.03
2022-12-08T23:03:48.672Z,21.97
2022-12-08T23:06:16.034Z,20.00
2022-12-08T23:08:44.149Z,21.47
2022-12-08T23:11:12.195Z,27.10
2022-12-08T23:13:39.899Z,21.13
2022-12-08T23:16:08.736Z,20.53
2022-12-08T23:18:37.041Z,20.47
2022-12-08T23:21:06.450Z,19.77
2022-12-08T23:23:34.314Z,20.87
2022-12-08T23:26:01.529Z,19.03
2022-12-08T23:28:28.730Z,18.83
2022-12-08T23:30:56.122Z,19.67
2022-12-08T23:33:23.408Z,35.87
2022-12-08T23:35:58.654Z,32.00
2022-12-08T23:38:26.101Z,23.33
2022-12-08T23:40:53.630Z,22.40
2022-12-08T23:43:21.113Z,24.13
2022-12-08T23:45:48.444Z,30.17
2022-12-08T23:48:15.774Z,25.00
2022-12-08T23:50:42.959Z,27.80
2022-12-08T23:53:10.125Z,22.50
2022-12-08T23:55:37.285Z,22.63
2022-12-08T23:58:04.619Z,20.83
